Callands, Virginia
Current Conditions -  °F | °C
As of 7:53 AM on Thursday 23 Oct 2014 (Local Time) from KDAN Reporting Station
Clear Clear  
Wind Chill: 41°   Ceiling: Unl
Heat Index: 45°   Visibility: 10mi
Dew Point: 39°   Wind: 8mph
Humidity: 80%   Direction: 270°W
Pressure: 30.03"   Gusts: NA
Location:  36.82°N, 79.59°W
Report Text: KDAN 231153Z AUTO 27007KT 10SM CLR 07/04 A3003 RMK AO2 SLP164 T00720039 10106 20067 53004
Loading
Personal Weather Stations






























Interactive Weather Map
Tropical Storm Tracking
New forecast layout! Learn more

10-Day Weather Forecast

Advertisements
Track Severe Weather on mobile